createdAt,value
2023-02-03T00:00:01.060Z,0.02
2023-02-03T00:02:02.634Z,0.15
2023-02-03T00:04:04.192Z,0.09
2023-02-03T00:06:05.835Z,-0.01
2023-02-03T00:08:08.793Z,0.04
2023-02-03T00:10:10.734Z,0.00
2023-02-03T00:12:12.135Z,-0.12
2023-02-03T00:14:13.893Z,-0.05
2023-02-03T00:16:15.328Z,-0.21
2023-02-03T00:18:16.760Z,-0.11
2023-02-03T00:20:18.822Z,-0.46
2023-02-03T00:22:20.215Z,-0.24
2023-02-03T00:24:21.730Z,-0.35
2023-02-03T00:26:23.343Z,-0.42
2023-02-03T00:28:24.728Z,-0.48
2023-02-03T00:30:27.039Z,-0.67
2023-02-03T00:32:29.415Z,-0.61
2023-02-03T00:34:31.407Z,-0.62
2023-02-03T00:36:33.107Z,-0.69
2023-02-03T00:38:34.840Z,-0.84
2023-02-03T00:40:36.226Z,-1.01
2023-02-03T00:42:37.651Z,-0.91
2023-02-03T00:44:39.219Z,-0.95
2023-02-03T00:46:40.681Z,-1.01
2023-02-03T00:48:42.096Z,-1.19
2023-02-03T00:50:46.963Z,-1.08
2023-02-03T00:52:48.377Z,-1.09
2023-02-03T00:54:49.777Z,-1.16
2023-02-03T00:56:51.511Z,-1.29
2023-02-03T00:58:52.930Z,-1.44
2023-02-03T01:00:55.715Z,-1.22
2023-02-03T01:02:57.438Z,-1.44
2023-02-03T01:04:58.848Z,-1.39
2023-02-03T01:07:00.248Z,-1.19
2023-02-03T01:09:03.470Z,-1.26
2023-02-03T01:11:15.266Z,-1.19
2023-02-03T01:13:16.650Z,-1.31
2023-02-03T01:15:18.267Z,-1.19
2023-02-03T01:17:19.684Z,-1.13
2023-02-03T01:19:21.605Z,-1.25
2023-02-03T01:21:25.570Z,-1.26
2023-02-03T01:23:27.393Z,-1.13
2023-02-03T01:25:28.801Z,-1.12
2023-02-03T01:27:32.585Z,-1.26
2023-02-03T01:29:34.072Z,-1.39
2023-02-03T01:31:40.846Z,-1.34
2023-02-03T01:33:43.003Z,-1.35
2023-02-03T01:35:44.423Z,-1.66
2023-02-03T01:37:45.804Z,-1.55
2023-02-03T01:39:47.470Z,-1.73
2023-02-03T01:41:48.963Z,-1.33
2023-02-03T01:43:54.106Z,-1.33
2023-02-03T01:45:55.719Z,-1.30
2023-02-03T01:47:59.577Z,-1.25
2023-02-03T01:50:11.257Z,-1.26
2023-02-03T01:52:13.148Z,-1.34
2023-02-03T01:54:39.187Z,-1.29
2023-02-03T01:56:45.154Z,-1.33
2023-02-03T01:58:49.513Z,-1.29
2023-02-03T02:00:52.331Z,-1.26
2023-02-03T02:02:54.069Z,-1.15
2023-02-03T02:05:03.462Z,-1.19
2023-02-03T02:07:06.368Z,-1.50
2023-02-03T02:09:08.590Z,-1.46
2023-02-03T02:11:10.685Z,-1.37
2023-02-03T02:13:13.191Z,-1.64
2023-02-03T02:15:14.917Z,-1.44
2023-02-03T02:17:50.292Z,-1.69
2023-02-03T02:20:30.802Z,-1.68
2023-02-03T02:23:19.203Z,-1.77
2023-02-03T02:25:39.217Z,-1.83
2023-02-03T02:28:21.236Z,-2.02
2023-02-03T02:30:34.511Z,-1.88
2023-02-03T02:32:57.551Z,-1.87
2023-02-03T02:35:07.751Z,-1.82
2023-02-03T02:37:26.463Z,-1.79
2023-02-03T02:39:53.336Z,-1.71
2023-02-03T02:42:19.820Z,-1.73
2023-02-03T02:44:26.905Z,-1.75
2023-02-03T02:46:37.989Z,-1.70
2023-02-03T02:48:52.794Z,-1.65
2023-02-03T02:50:57.671Z,-1.65
2023-02-03T02:52:59.666Z,-1.72
2023-02-03T02:55:07.914Z,-1.50
2023-02-03T02:57:12.931Z,-1.47
2023-02-03T02:59:14.889Z,-1.60
2023-02-03T03:01:16.995Z,-1.58
2023-02-03T03:03:23.635Z,-1.27
2023-02-03T03:05:26.810Z,-1.18
2023-02-03T03:07:30.827Z,-1.32
2023-02-03T03:09:44.146Z,-1.19
2023-02-03T03:11:51.321Z,-1.26
2023-02-03T03:13:55.323Z,-1.41
2023-02-03T03:15:58.400Z,-1.50
2023-02-03T03:18:10.464Z,-1.32
2023-02-03T03:20:20.176Z,-1.52
2023-02-03T03:22:27.363Z,-1.40
2023-02-03T03:24:32.564Z,-1.21
2023-02-03T03:26:50.005Z,-1.10
2023-02-03T03:29:11.112Z,-1.03
2023-02-03T03:31:12.710Z,-1.06
2023-02-03T03:33:14.370Z,-1.15
2023-02-03T03:35:16.727Z,-1.17
2023-02-03T03:37:35.133Z,-1.11
2023-02-03T03:39:52.414Z,-1.16
2023-02-03T03:42:04.925Z,-1.26
2023-02-03T03:44:13.083Z,-1.41
2023-02-03T03:46:21.504Z,-1.41
2023-02-03T03:48:37.219Z,-1.40
2023-02-03T03:50:45.398Z,-1.66
2023-02-03T03:52:49.968Z,-1.61
2023-02-03T03:54:54.575Z,-1.56
2023-02-03T03:57:18.499Z,-1.44
2023-02-03T03:59:24.218Z,-1.41
2023-02-03T04:01:26.393Z,-1.43
2023-02-03T04:03:50.321Z,-1.57
2023-02-03T04:05:51.904Z,-1.69
2023-02-03T04:07:53.524Z,-1.49
2023-02-03T04:09:54.924Z,-1.45
2023-02-03T04:11:56.598Z,-1.52
2023-02-03T04:13:58.058Z,-1.26
2023-02-03T04:15:59.516Z,-1.37
2023-02-03T04:18:01.865Z,-1.29
2023-02-03T04:20:04.729Z,-1.19
2023-02-03T04:22:06.299Z,-1.12
2023-02-03T04:24:08.052Z,-1.24
2023-02-03T04:26:09.452Z,-1.12
2023-02-03T04:28:10.882Z,-1.04
2023-02-03T04:30:13.963Z,-1.04
2023-02-03T04:32:15.358Z,-0.86
2023-02-03T04:34:16.755Z,-0.92
2023-02-03T04:36:18.559Z,-1.11
2023-02-03T04:38:19.954Z,-0.83
2023-02-03T04:40:21.460Z,-0.86
2023-02-03T04:42:23.679Z,-0.95
2023-02-03T04:44:25.104Z,-0.79
2023-02-03T04:46:26.494Z,-0.78
2023-02-03T04:48:28.257Z,-0.72
2023-02-03T04:50:29.627Z,-0.71
2023-02-03T04:52:32.027Z,-0.92
2023-02-03T04:54:33.769Z,-0.63
2023-02-03T04:56:35.203Z,-0.69
2023-02-03T04:58:37.137Z,-0.56
2023-02-03T05:00:38.866Z,-0.69
2023-02-03T05:02:40.290Z,-0.68
2023-02-03T05:04:41.730Z,-0.78
2023-02-03T05:06:43.344Z,-0.97
2023-02-03T05:08:44.767Z,-0.93
2023-02-03T05:10:48.636Z,-1.12
2023-02-03T05:12:50.325Z,-0.88
2023-02-03T05:14:51.728Z,-1.08
2023-02-03T05:16:53.193Z,-1.08
2023-02-03T05:18:54.977Z,-1.15
2023-02-03T05:20:56.408Z,-1.07
2023-02-03T05:22:58.535Z,-1.16
2023-02-03T05:25:00.167Z,-1.24
2023-02-03T05:27:01.605Z,-1.29
2023-02-03T05:29:03.685Z,-1.21
2023-02-03T05:31:06.006Z,-1.28
2023-02-03T05:33:07.536Z,-1.29
2023-02-03T05:35:09.017Z,-1.06
2023-02-03T05:37:10.529Z,-1.01
2023-02-03T05:39:11.953Z,-1.02
2023-02-03T05:41:13.445Z,-1.00
2023-02-03T05:43:15.199Z,-1.08
2023-02-03T05:45:17.362Z,-1.04
2023-02-03T05:47:18.786Z,-1.01
2023-02-03T05:49:20.482Z,-1.08
2023-02-03T05:51:21.892Z,-1.05
2023-02-03T05:53:23.532Z,-1.10
2023-02-03T05:55:25.340Z,-1.20
2023-02-03T05:57:26.789Z,-1.20
2023-02-03T05:59:28.202Z,-0.92
2023-02-03T06:01:29.863Z,-0.97
2023-02-03T06:03:31.302Z,-1.30
2023-02-03T06:05:34.223Z,-0.95
2023-02-03T06:07:36.015Z,-1.04
2023-02-03T06:09:37.411Z,-1.24
2023-02-03T06:11:38.810Z,-0.99
2023-02-03T06:13:40.424Z,-1.05
2023-02-03T06:15:42.683Z,-1.10
2023-02-03T06:17:45.978Z,-1.01
2023-02-03T06:19:47.700Z,-1.10
2023-02-03T06:21:49.097Z,-1.10
2023-02-03T06:23:50.519Z,-1.00
2023-02-03T06:25:52.410Z,-1.28
2023-02-03T06:27:53.832Z,-1.12
2023-02-03T06:29:55.260Z,-1.04
2023-02-03T06:31:56.894Z,-1.06
2023-02-03T06:33:58.413Z,-1.07
2023-02-03T06:35:59.840Z,-0.99
2023-02-03T06:38:01.424Z,-0.98
2023-02-03T06:40:03.628Z,-0.99
2023-02-03T06:42:05.052Z,-1.15
2023-02-03T06:44:06.879Z,-0.90
2023-02-03T06:46:08.315Z,-0.92
2023-02-03T06:48:09.741Z,-0.66
2023-02-03T06:50:14.419Z,-0.68
2023-02-03T06:52:15.826Z,-0.79
2023-02-03T06:54:17.214Z,-0.66
2023-02-03T06:56:18.757Z,-0.54
2023-02-03T06:58:20.147Z,-0.78
2023-02-03T07:00:21.710Z,-0.58
2023-02-03T07:02:23.399Z,-0.44
2023-02-03T07:04:24.935Z,-0.35
2023-02-03T07:06:26.368Z,-0.36
2023-02-03T07:08:27.865Z,-0.23
2023-02-03T07:10:29.497Z,-0.52
2023-02-03T07:12:31.804Z,-0.48
2023-02-03T07:14:33.338Z,-0.41
2023-02-03T07:16:34.718Z,-0.49
2023-02-03T07:18:46.768Z,-0.44
2023-02-03T07:20:48.801Z,-0.36
2023-02-03T07:22:55.631Z,-0.18
2023-02-03T07:24:57.191Z,-0.24
2023-02-03T07:26:59.081Z,-0.14
2023-02-03T07:29:00.504Z,-0.06
2023-02-03T07:31:03.212Z,0.03
2023-02-03T07:33:04.952Z,-0.06
2023-02-03T07:35:06.497Z,-0.08
2023-02-03T07:37:07.900Z,0.03
2023-02-03T07:39:10.044Z,0.03
2023-02-03T07:41:11.460Z,0.08
2023-02-03T07:43:12.896Z,0.00
2023-02-03T07:45:16.675Z,-0.02
2023-02-03T07:47:18.133Z,0.02
2023-02-03T07:49:19.692Z,-0.03
2023-02-03T07:51:21.287Z,-0.15
2023-02-03T07:53:22.680Z,0.10
2023-02-03T07:55:24.155Z,0.06
2023-02-03T07:57:25.628Z,0.17
2023-02-03T07:59:26.999Z,0.03
2023-02-03T08:01:28.555Z,0.29
2023-02-03T08:03:31.122Z,0.25
2023-02-03T08:05:32.631Z,0.23
2023-02-03T08:07:34.111Z,0.09
2023-02-03T08:09:37.314Z,0.22
2023-02-03T08:11:38.701Z,0.36
2023-02-03T08:13:40.119Z,0.47
2023-02-03T08:15:41.738Z,0.31
2023-02-03T08:17:43.139Z,0.29
2023-02-03T08:19:44.675Z,0.28
2023-02-03T08:21:46.240Z,0.18
2023-02-03T08:23:47.652Z,0.46
2023-02-03T08:25:53.061Z,0.47
2023-02-03T08:27:54.571Z,0.38
2023-02-03T08:29:56.049Z,0.25
2023-02-03T08:31:57.474Z,0.37
2023-02-03T08:36:18.291Z,0.41
2023-02-03T08:38:19.836Z,0.22
2023-02-03T08:40:21.377Z,0.45
2023-02-03T08:42:22.919Z,0.30
2023-02-03T08:44:24.327Z,0.37
2023-02-03T08:46:25.771Z,0.34
2023-02-03T08:48:27.400Z,0.57
2023-02-03T08:50:29.147Z,0.61
2023-02-03T08:52:31.015Z,0.52
2023-02-03T08:54:33.089Z,0.60
2023-02-03T08:56:34.492Z,0.50
2023-02-03T08:58:36.803Z,0.83
2023-02-03T09:00:39.893Z,0.82
2023-02-03T09:02:44.199Z,0.75
2023-02-03T09:04:46.635Z,0.81
2023-02-03T09:06:48.587Z,0.75
2023-02-03T09:08:50.361Z,0.81
2023-02-03T09:10:51.867Z,0.24
2023-02-03T09:12:53.294Z,0.40
2023-02-03T09:14:54.667Z,0.54
2023-02-03T09:16:56.389Z,0.51
2023-02-03T09:18:57.919Z,0.59
2023-02-03T09:21:03.557Z,0.61
2023-02-03T09:23:05.111Z,0.54
2023-02-03T09:25:07.628Z,0.46
2023-02-03T09:27:09.113Z,0.60
2023-02-03T09:29:10.660Z,0.44
2023-02-03T09:31:16.309Z,0.68
2023-02-03T09:33:17.728Z,0.90
2023-02-03T09:35:19.427Z,0.51
2023-02-03T09:37:21.146Z,0.75
2023-02-03T09:39:22.586Z,0.62
2023-02-03T09:41:49.712Z,0.94
2023-02-03T09:44:07.871Z,0.93
2023-02-03T09:46:22.855Z,0.53
2023-02-03T09:48:32.663Z,0.27
2023-02-03T09:50:37.706Z,0.72
2023-02-03T09:52:41.320Z,0.71
2023-02-03T09:54:42.639Z,0.51
2023-02-03T09:56:44.699Z,0.61
2023-02-03T09:58:46.156Z,0.51
2023-02-03T10:00:55.065Z,0.77
2023-02-03T10:03:08.686Z,0.88
2023-02-03T10:05:22.512Z,0.82
2023-02-03T10:07:46.715Z,0.68
2023-02-03T10:10:05.665Z,0.53
2023-02-03T10:12:34.515Z,0.82
2023-02-03T10:14:43.592Z,0.67
2023-02-03T10:17:23.973Z,0.84
2023-02-03T10:19:44.505Z,0.75
2023-02-03T10:21:54.054Z,0.81
2023-02-03T10:23:57.650Z,0.74
2023-02-03T10:26:01.310Z,0.93
2023-02-03T10:28:09.512Z,0.96
2023-02-03T10:30:34.019Z,1.00
2023-02-03T10:32:35.582Z,0.96
2023-02-03T10:34:37.871Z,1.00
2023-02-03T10:36:48.388Z,1.11
2023-02-03T10:39:08.434Z,1.07
2023-02-03T10:41:10.179Z,1.16
2023-02-03T10:43:11.906Z,1.04
2023-02-03T10:45:13.343Z,1.07
2023-02-03T10:47:17.687Z,0.98
2023-02-03T10:49:19.426Z,0.83
2023-02-03T10:51:28.098Z,0.93
2023-02-03T10:53:35.049Z,0.92
2023-02-03T10:55:36.657Z,1.18
2023-02-03T10:57:38.599Z,0.97
2023-02-03T10:59:45.291Z,0.94
2023-02-03T11:01:49.573Z,0.98
2023-02-03T11:03:55.310Z,1.10
2023-02-03T11:06:15.287Z,0.87
2023-02-03T11:08:17.767Z,0.94
2023-02-03T11:10:33.778Z,1.05
2023-02-03T11:12:35.406Z,0.68
2023-02-03T11:14:39.784Z,0.88
2023-02-03T11:16:44.298Z,0.72
2023-02-03T11:19:06.761Z,0.62
2023-02-03T11:21:21.704Z,0.72
2023-02-03T11:23:23.612Z,0.75
2023-02-03T11:25:28.491Z,0.72
2023-02-03T11:27:33.064Z,0.73
2023-02-03T11:29:37.514Z,0.63
2023-02-03T11:31:39.055Z,0.65
2023-02-03T11:33:40.684Z,0.35
2023-02-03T11:35:58.126Z,0.39
2023-02-03T11:38:02.004Z,0.43
2023-02-03T11:40:09.663Z,0.30
2023-02-03T11:42:23.156Z,0.30
2023-02-03T11:44:29.840Z,0.22
2023-02-03T11:46:36.792Z,0.15
2023-02-03T11:48:56.265Z,0.20
2023-02-03T11:51:18.837Z,0.11
2023-02-03T11:53:24.086Z,0.08
2023-02-03T11:55:42.823Z,-0.15
2023-02-03T11:57:49.503Z,0.05
2023-02-03T12:00:09.342Z,0.08
2023-02-03T12:02:29.344Z,0.04
2023-02-03T12:04:48.827Z,0.06
2023-02-03T12:07:06.901Z,-0.03
2023-02-03T12:09:26.301Z,-0.15
2023-02-03T12:11:55.670Z,-0.05
2023-02-03T12:14:09.519Z,-0.14
2023-02-03T12:16:28.056Z,0.05
2023-02-03T12:18:52.849Z,-0.03
2023-02-03T12:21:06.300Z,-0.06
2023-02-03T12:23:23.732Z,-0.05
2023-02-03T12:25:46.343Z,0.02
2023-02-03T12:28:06.097Z,0.00
2023-02-03T12:30:18.726Z,-0.02
2023-02-03T12:32:32.122Z,-0.03
2023-02-03T12:35:07.620Z,-0.10
2023-02-03T12:37:16.730Z,-0.23
2023-02-03T12:39:26.701Z,-0.21
2023-02-03T12:41:37.593Z,-0.26
2023-02-03T12:43:42.766Z,-0.40
2023-02-03T12:45:53.457Z,-0.28
2023-02-03T12:48:17.547Z,-0.34
2023-02-03T12:50:38.158Z,-0.23
2023-02-03T12:52:47.587Z,-0.23
2023-02-03T12:54:58.541Z,-0.26
2023-02-03T12:57:32.376Z,-0.26
2023-02-03T12:59:36.282Z,-0.21
2023-02-03T13:01:45.760Z,-0.31
2023-02-03T13:04:18.624Z,-0.09
2023-02-03T13:06:45.898Z,-0.19
2023-02-03T13:09:00.944Z,-0.16
2023-02-03T13:11:31.349Z,-0.31
2023-02-03T13:13:55.781Z,-0.48
2023-02-03T13:15:57.911Z,-0.28
2023-02-03T13:18:12.552Z,-0.40
2023-02-03T13:20:22.419Z,-0.34
2023-02-03T13:22:24.662Z,-0.28
2023-02-03T13:24:28.598Z,-0.31
2023-02-03T13:26:41.972Z,-0.24
2023-02-03T13:28:59.330Z,-0.31
2023-02-03T13:31:27.399Z,-0.42
2023-02-03T13:33:51.888Z,-0.33
2023-02-03T13:36:10.283Z,-0.44
2023-02-03T13:38:17.473Z,-0.47
2023-02-03T13:40:29.821Z,-0.45
2023-02-03T13:43:06.257Z,-0.50
2023-02-03T13:45:48.320Z,-0.51
2023-02-03T13:47:53.961Z,-0.42
2023-02-03T13:50:00.954Z,-0.57
2023-02-03T13:52:03.329Z,-0.53
2023-02-03T13:54:16.167Z,-0.66
2023-02-03T13:56:24.894Z,-0.54
2023-02-03T13:58:34.335Z,-0.56
2023-02-03T14:00:44.837Z,-0.56
2023-02-03T14:02:55.697Z,-0.55
2023-02-03T14:04:58.575Z,-0.54
2023-02-03T14:07:02.881Z,-0.39
2023-02-03T14:09:21.267Z,-0.44
2023-02-03T14:11:34.637Z,-0.41
2023-02-03T14:13:37.698Z,-0.46
2023-02-03T14:15:39.440Z,-0.66
2023-02-03T14:17:40.799Z,-0.42
2023-02-03T14:19:51.171Z,-0.38
2023-02-03T14:21:55.981Z,-0.47
2023-02-03T14:24:08.718Z,-0.23
2023-02-03T14:26:24.658Z,-0.35
2023-02-03T14:28:37.167Z,-0.35
2023-02-03T14:31:01.645Z,-0.46
2023-02-03T14:33:03.294Z,-0.32
2023-02-03T14:35:16.699Z,-0.31
2023-02-03T14:37:27.309Z,-0.42
2023-02-03T14:39:46.759Z,-0.14
2023-02-03T14:42:21.662Z,-0.10
2023-02-03T14:44:35.847Z,-0.11
2023-02-03T14:46:58.632Z,-0.01
2023-02-03T14:49:18.373Z,0.05
2023-02-03T14:52:01.440Z,0.18
2023-02-03T14:54:36.857Z,0.03
2023-02-03T14:56:47.504Z,-0.07
2023-02-03T14:58:54.843Z,-0.08
2023-02-03T15:00:56.614Z,-0.02
2023-02-03T15:03:07.101Z,-0.15
2023-02-03T15:05:14.501Z,-0.18
2023-02-03T15:07:37.429Z,-0.14
2023-02-03T15:09:40.368Z,-0.21
2023-02-03T15:11:44.695Z,-0.21
2023-02-03T15:13:46.311Z,-0.42
2023-02-03T15:15:50.818Z,-0.18
2023-02-03T15:17:55.310Z,-0.15
2023-02-03T15:19:56.801Z,-0.23
2023-02-03T15:21:58.347Z,-0.27
2023-02-03T15:23:59.857Z,-0.13
2023-02-03T15:26:03.933Z,-0.19
2023-02-03T15:28:13.942Z,-0.11
2023-02-03T15:30:24.727Z,-0.09
2023-02-03T15:32:43.690Z,-0.10
2023-02-03T15:34:48.342Z,-0.14
2023-02-03T15:36:53.352Z,-0.12
2023-02-03T15:39:07.769Z,-0.20
2023-02-03T15:41:33.813Z,-0.03
2023-02-03T15:43:42.179Z,-0.07
2023-02-03T15:46:13.827Z,0.14
2023-02-03T15:48:32.037Z,0.09
2023-02-03T15:50:41.472Z,-0.06
2023-02-03T15:52:45.792Z,0.24
2023-02-03T15:54:51.982Z,0.33
2023-02-03T15:57:07.716Z,0.54
2023-02-03T15:59:26.616Z,0.47
2023-02-03T16:01:28.309Z,0.42
2023-02-03T16:03:48.842Z,-0.07
2023-02-03T16:05:50.583Z,0.07
2023-02-03T16:07:52.413Z,0.17
2023-02-03T16:09:55.652Z,0.01
2023-02-03T16:12:17.785Z,0.02
2023-02-03T16:14:33.511Z,0.05
2023-02-03T16:16:39.993Z,0.10
2023-02-03T16:18:59.542Z,0.15
2023-02-03T16:21:01.363Z,0.00
2023-02-03T16:23:20.638Z,-0.03
2023-02-03T16:25:25.197Z,0.11
2023-02-03T16:27:26.760Z,0.19
2023-02-03T16:29:29.607Z,0.24
2023-02-03T16:31:31.430Z,0.15
2023-02-03T16:33:32.957Z,0.29
2023-02-03T16:35:34.348Z,0.34
2023-02-03T16:37:44.096Z,0.53
2023-02-03T16:39:45.683Z,0.45
2023-02-03T16:41:47.234Z,0.51
2023-02-03T16:43:48.896Z,0.42
2023-02-03T16:45:55.096Z,0.30
2023-02-03T16:47:56.545Z,0.33
2023-02-03T16:49:58.011Z,0.43
2023-02-03T16:51:59.612Z,0.27
2023-02-03T16:54:01.016Z,0.20
2023-02-03T16:56:04.606Z,0.32
2023-02-03T16:58:06.011Z,0.31
2023-02-03T17:00:08.211Z,0.20
2023-02-03T17:02:10.799Z,0.21
2023-02-03T17:04:12.319Z,0.46
2023-02-03T17:06:13.927Z,0.56
2023-02-03T17:08:17.240Z,0.49
2023-02-03T17:10:18.755Z,0.60
2023-02-03T17:12:20.163Z,0.50
2023-02-03T17:14:21.576Z,0.33
2023-02-03T17:16:25.617Z,0.48
2023-02-03T17:18:27.109Z,0.57
2023-02-03T17:20:28.572Z,0.49
2023-02-03T17:22:30.148Z,0.54
2023-02-03T17:24:31.544Z,0.73
2023-02-03T17:26:33.425Z,0.82
2023-02-03T17:28:35.202Z,0.81
2023-02-03T17:30:36.660Z,0.73
2023-02-03T17:32:38.305Z,0.69
2023-02-03T17:34:39.841Z,0.73
2023-02-03T17:36:41.278Z,0.63
2023-02-03T17:55:05.824Z,0.30
2023-02-03T17:57:07.258Z,0.27
2023-02-03T17:59:09.722Z,0.35
2023-02-03T18:01:16.372Z,0.32
2023-02-03T18:03:17.789Z,0.23
2023-02-03T18:05:19.402Z,0.22
2023-02-03T18:07:21.094Z,0.38
2023-02-03T18:09:22.534Z,0.49
2023-02-03T18:11:23.926Z,0.54
2023-02-03T18:13:25.688Z,0.66
2023-02-03T18:15:27.108Z,0.61
2023-02-03T18:17:28.539Z,0.73
2023-02-03T18:19:30.094Z,0.54
2023-02-03T18:21:32.003Z,0.80
2023-02-03T18:23:33.456Z,0.62
2023-02-03T18:25:35.869Z,0.79
2023-02-03T18:27:37.593Z,0.81
2023-02-03T18:29:39.012Z,0.77
2023-02-03T18:31:41.166Z,0.62
2023-02-03T18:33:47.181Z,0.47
2023-02-03T18:35:48.571Z,0.46
2023-02-03T18:37:50.387Z,0.27
2023-02-03T18:39:51.814Z,0.50
2023-02-03T18:41:53.227Z,0.60
2023-02-03T18:43:55.137Z,0.59
2023-02-03T18:48:16.672Z,0.69
2023-02-03T18:50:18.078Z,0.72
2023-02-03T18:52:19.490Z,0.76
2023-02-03T18:54:21.079Z,0.69
2023-02-03T18:56:25.399Z,0.71
2023-02-03T18:58:26.815Z,0.53
2023-02-03T19:00:28.882Z,0.45
2023-02-03T19:02:30.648Z,0.45
2023-02-03T19:04:32.940Z,0.56
2023-02-03T19:06:35.230Z,0.67
2023-02-03T19:08:36.622Z,0.63
2023-02-03T19:10:38.060Z,0.75
2023-02-03T19:12:39.548Z,0.66
2023-02-03T19:14:41.079Z,0.50
2023-02-03T19:16:43.345Z,0.55
2023-02-03T19:18:45.549Z,0.41
2023-02-03T19:20:46.930Z,0.49
2023-02-03T19:22:48.352Z,0.56
2023-02-03T19:24:49.922Z,0.60
2023-02-03T19:26:51.299Z,0.61
2023-02-03T19:28:52.710Z,0.67
2023-02-03T19:31:00.054Z,0.40
2023-02-03T19:33:07.288Z,0.22
2023-02-03T19:35:11.700Z,0.19
2023-02-03T19:37:13.426Z,0.40
2023-02-03T19:39:15.345Z,0.31
2023-02-03T19:41:16.847Z,0.28
2023-02-03T19:43:18.617Z,0.25
2023-02-03T19:45:20.036Z,0.25
2023-02-03T19:47:21.440Z,0.46
2023-02-03T19:49:23.004Z,0.33
2023-02-03T19:51:24.404Z,0.34
2023-02-03T19:53:25.994Z,0.48
2023-02-03T19:55:27.567Z,0.49
2023-02-03T19:57:28.999Z,0.43
2023-02-03T19:59:30.405Z,0.41
2023-02-03T20:01:32.359Z,0.41
2023-02-03T20:03:33.807Z,0.67
2023-02-03T20:05:36.036Z,0.62
2023-02-03T20:07:37.644Z,0.70
2023-02-03T20:09:39.182Z,0.72
2023-02-03T20:11:40.681Z,0.79
2023-02-03T20:13:42.448Z,0.55
2023-02-03T20:15:44.764Z,0.50
2023-02-03T20:17:46.439Z,0.70
2023-02-03T20:19:47.940Z,0.52
2023-02-03T20:21:49.352Z,0.32
2023-02-03T20:23:50.894Z,0.36
2023-02-03T20:25:53.718Z,0.77
2023-02-03T20:27:55.621Z,0.66
2023-02-03T20:29:57.131Z,0.52
2023-02-03T20:31:58.787Z,0.71
2023-02-03T20:34:00.326Z,0.63
2023-02-03T20:36:02.020Z,0.51
2023-02-03T20:38:03.551Z,0.60
2023-02-03T20:40:17.763Z,0.45
2023-02-03T20:42:19.256Z,0.52
2023-02-03T20:44:20.782Z,0.48
2023-02-03T20:46:22.262Z,0.41
2023-02-03T20:48:24.017Z,0.45
2023-02-03T20:50:37.316Z,0.06
2023-02-03T20:52:43.079Z,0.31
2023-02-03T20:54:44.601Z,0.46
2023-02-03T20:56:46.086Z,0.32
2023-02-03T20:58:48.144Z,0.58
2023-02-03T21:00:50.104Z,0.42
2023-02-03T21:02:51.932Z,0.32
2023-02-03T21:04:53.361Z,0.23
2023-02-03T21:06:54.884Z,0.28
2023-02-03T21:09:08.745Z,0.11
2023-02-03T21:11:16.687Z,0.23
2023-02-03T21:13:21.648Z,0.40
2023-02-03T21:15:29.681Z,0.28
2023-02-03T21:17:35.564Z,0.09
2023-02-03T21:19:37.026Z,0.16
2023-02-03T21:21:40.148Z,0.20
2023-02-03T21:23:46.878Z,0.14
2023-02-03T21:25:48.752Z,0.15
2023-02-03T21:27:51.613Z,0.04
2023-02-03T21:29:53.341Z,0.11
2023-02-03T21:31:55.504Z,0.06
2023-02-03T21:33:58.937Z,0.26
2023-02-03T21:36:00.620Z,0.03
2023-02-03T21:38:19.248Z,0.25
2023-02-03T21:40:23.580Z,0.03
2023-02-03T21:42:34.298Z,0.22
2023-02-03T21:44:35.845Z,0.05
2023-02-03T21:46:37.375Z,0.14
2023-02-03T21:48:40.411Z,0.23
2023-02-03T21:50:42.004Z,0.12
2023-02-03T21:52:43.776Z,-0.02
2023-02-03T21:54:45.186Z,0.06
2023-02-03T21:56:46.754Z,-0.03
2023-02-03T21:58:50.402Z,0.02
2023-02-03T22:01:04.721Z,0.03
2023-02-03T22:03:06.652Z,-0.08
2023-02-03T22:05:15.374Z,-0.10
2023-02-03T22:07:18.141Z,-0.23
2023-02-03T22:09:21.868Z,0.13
2023-02-03T22:11:24.545Z,-0.01
2023-02-03T22:13:25.937Z,-0.30
2023-02-03T22:15:27.588Z,-0.24
2023-02-03T22:17:29.224Z,-0.16
2023-02-03T22:19:30.628Z,-0.20
2023-02-03T22:21:32.248Z,-0.55
2023-02-03T22:23:33.909Z,-0.32
2023-02-03T22:25:35.358Z,-0.33
2023-02-03T22:27:37.038Z,-0.12
2023-02-03T22:29:38.627Z,-0.19
2023-02-03T22:31:40.145Z,-0.25
2023-02-03T22:33:41.986Z,-0.17
2023-02-03T22:35:43.529Z,-0.41
2023-02-03T22:37:44.960Z,-0.36
2023-02-03T22:39:46.545Z,-0.10
2023-02-03T22:41:48.187Z,-0.26
2023-02-03T22:43:49.602Z,-0.14
2023-02-03T22:45:51.261Z,-0.20
2023-02-03T22:47:52.743Z,-0.21
2023-02-03T22:49:54.143Z,-0.63
2023-02-03T22:51:55.773Z,-0.56
2023-02-03T22:53:57.267Z,-0.49
2023-02-03T22:55:58.700Z,-0.46
2023-02-03T22:58:00.212Z,-0.68
2023-02-03T23:00:01.770Z,-0.53
2023-02-03T23:02:03.299Z,-0.52
2023-02-03T23:04:04.897Z,-0.73
2023-02-03T23:06:06.557Z,-1.00
2023-02-03T23:08:07.944Z,-0.54
2023-02-03T23:10:12.303Z,-0.46
2023-02-03T23:12:13.750Z,-0.65
2023-02-03T23:14:15.159Z,-0.93
2023-02-03T23:16:16.724Z,-1.13
2023-02-03T23:18:18.243Z,-0.83
2023-02-03T23:20:19.758Z,-0.89
2023-02-03T23:22:21.255Z,-0.78
2023-02-03T23:24:22.727Z,-0.99
2023-02-03T23:26:24.132Z,-1.11
2023-02-03T23:28:25.557Z,-1.17
2023-02-03T23:30:27.054Z,-0.89
2023-02-03T23:32:28.490Z,-1.07
2023-02-03T23:34:30.036Z,-1.28
2023-02-03T23:36:32.581Z,-0.99
2023-02-03T23:38:34.015Z,-1.13
2023-02-03T23:40:35.462Z,-1.23
2023-02-03T23:42:36.951Z,-1.15
2023-02-03T23:44:38.395Z,-1.21
2023-02-03T23:46:39.834Z,-1.25
2023-02-03T23:48:42.011Z,-1.13
2023-02-03T23:50:43.441Z,-1.15
2023-02-03T23:52:44.943Z,-1.50
2023-02-03T23:54:46.547Z,-1.18
2023-02-03T23:56:47.992Z,-1.37
2023-02-03T23:58:49.535Z,-1.24
